createdAt,value
2022-09-02T00:01:41.757Z,3.61
2022-09-02T00:04:15.604Z,3.04
2022-09-02T00:06:45.386Z,3.80
2022-09-02T00:09:16.976Z,3.04
2022-09-02T00:11:48.193Z,3.23
2022-09-02T00:14:22.574Z,3.42
2022-09-02T00:16:52.894Z,3.42
2022-09-02T00:19:24.554Z,3.04
2022-09-02T00:21:53.989Z,3.04
2022-09-02T00:24:23.303Z,2.66
2022-09-02T00:26:50.129Z,3.04
2022-09-02T00:29:17.836Z,3.23
2022-09-02T00:31:46.721Z,2.85
2022-09-02T00:34:14.017Z,3.23
2022-09-02T00:36:41.038Z,3.04
2022-09-02T00:39:09.415Z,3.23
2022-09-02T00:41:39.362Z,2.85
2022-09-02T00:44:12.086Z,3.42
2022-09-02T00:46:39.742Z,3.23
2022-09-02T00:49:17.806Z,3.23
2022-09-02T00:51:56.133Z,3.04
2022-09-02T00:54:27.074Z,3.04
2022-09-02T00:56:56.163Z,3.42
2022-09-02T00:59:54.784Z,2.66
2022-09-02T01:02:25.242Z,3.04
2022-09-02T01:04:56.831Z,3.23
2022-09-02T01:07:28.686Z,2.66
2022-09-02T01:09:57.820Z,3.23
2022-09-02T01:12:27.775Z,3.04
2022-09-02T01:14:54.507Z,3.04
2022-09-02T01:17:21.321Z,3.42
2022-09-02T01:19:54.832Z,2.47
2022-09-02T01:22:30.367Z,2.85
2022-09-02T01:25:05.354Z,3.04
2022-09-02T01:27:32.408Z,3.23
2022-09-02T01:30:01.772Z,3.23
2022-09-02T01:32:30.804Z,2.85
2022-09-02T01:34:58.096Z,3.04
2022-09-02T01:37:25.786Z,3.23
2022-09-02T01:39:53.755Z,3.04
2022-09-02T01:42:22.323Z,3.04
2022-09-02T01:44:49.134Z,3.04
2022-09-02T01:47:25.604Z,3.04
2022-09-02T01:49:53.533Z,3.23
2022-09-02T01:52:23.854Z,3.42
2022-09-02T01:54:51.194Z,3.04
2022-09-02T01:57:18.245Z,3.23
2022-09-02T01:59:46.188Z,2.85
2022-09-02T02:02:14.677Z,2.85
2022-09-02T02:04:41.892Z,3.42
2022-09-02T02:07:09.153Z,3.23
2022-09-02T02:09:36.026Z,3.42
2022-09-02T02:12:04.146Z,3.23
2022-09-02T02:14:31.028Z,3.04
2022-09-02T02:16:58.080Z,2.47
2022-09-02T02:19:24.819Z,3.42
2022-09-02T02:21:52.103Z,3.42
2022-09-02T02:24:19.101Z,2.66
2022-09-02T02:26:46.498Z,3.23
2022-09-02T02:29:14.831Z,2.66
2022-09-02T02:31:42.643Z,2.85
2022-09-02T02:34:10.538Z,2.85
2022-09-02T02:36:39.379Z,2.47
2022-09-02T02:39:09.825Z,2.66
2022-09-02T02:41:38.788Z,3.04
2022-09-02T02:44:06.288Z,3.23
2022-09-02T02:46:35.641Z,3.04
2022-09-02T02:49:06.275Z,3.23
2022-09-02T02:51:35.016Z,2.47
2022-09-02T02:54:02.986Z,3.61
2022-09-02T02:56:31.146Z,3.04
2022-09-02T02:59:03.592Z,3.23
2022-09-02T03:01:32.539Z,2.85
2022-09-02T03:04:00.002Z,2.66
2022-09-02T03:06:26.968Z,3.04
2022-09-02T03:08:54.224Z,2.66
2022-09-02T03:11:22.749Z,2.47
2022-09-02T03:13:52.866Z,3.04
2022-09-02T03:16:20.345Z,2.66
2022-09-02T03:18:50.594Z,2.85
2022-09-02T03:21:19.231Z,3.42
2022-09-02T03:23:47.140Z,2.85
2022-09-02T03:26:19.305Z,2.85
2022-09-02T03:28:47.637Z,3.04
2022-09-02T03:31:27.061Z,2.85
2022-09-02T03:33:54.509Z,3.23
2022-09-02T03:36:25.956Z,3.23
2022-09-02T03:38:53.868Z,3.04
2022-09-02T03:41:21.456Z,2.85
2022-09-02T03:43:48.680Z,3.04
2022-09-02T03:46:16.370Z,3.04
2022-09-02T03:48:44.629Z,3.23
2022-09-02T03:51:12.723Z,2.85
2022-09-02T03:53:39.648Z,3.04
2022-09-02T03:56:12.029Z,3.04
2022-09-02T03:58:41.509Z,3.04
2022-09-02T04:01:17.844Z,3.04
2022-09-02T04:03:45.253Z,3.23
2022-09-02T04:06:15.202Z,2.85
2022-09-02T04:08:44.975Z,3.04
2022-09-02T04:11:17.960Z,2.85
2022-09-02T04:13:47.534Z,2.85
2022-09-02T04:16:20.465Z,3.42
2022-09-02T04:18:47.323Z,3.99
2022-09-02T04:21:16.728Z,3.42
2022-09-02T04:23:43.992Z,2.66
2022-09-02T04:26:15.460Z,3.61
2022-09-02T04:28:42.508Z,3.23
2022-09-02T04:31:13.977Z,3.23
2022-09-02T04:33:41.407Z,3.23
2022-09-02T04:36:14.619Z,3.61
2022-09-02T04:38:41.915Z,3.04
2022-09-02T04:41:19.673Z,3.42
2022-09-02T04:43:46.648Z,3.23
2022-09-02T04:46:16.337Z,3.61
2022-09-02T04:48:47.267Z,3.80
2022-09-02T04:51:19.021Z,3.42
2022-09-02T04:53:48.280Z,3.42
2022-09-02T04:56:21.471Z,3.23
2022-09-02T04:58:51.633Z,3.61
2022-09-02T05:01:26.267Z,3.42
2022-09-02T05:03:54.743Z,4.18
2022-09-02T05:06:27.026Z,3.80
2022-09-02T05:08:56.749Z,3.61
2022-09-02T05:11:28.474Z,3.42
2022-09-02T05:13:59.221Z,4.18
2022-09-02T05:16:31.942Z,3.23
2022-09-02T05:19:00.273Z,3.61
2022-09-02T05:21:27.142Z,3.61
2022-09-02T05:23:54.588Z,3.80
2022-09-02T05:26:22.685Z,3.61
2022-09-02T05:28:50.620Z,3.61
2022-09-02T05:31:20.193Z,3.61
2022-09-02T05:33:47.818Z,3.99
2022-09-02T05:36:19.238Z,3.61
2022-09-02T05:38:46.824Z,3.42
2022-09-02T05:41:23.574Z,3.80
2022-09-02T05:43:54.346Z,3.99
2022-09-02T05:46:24.892Z,3.42
2022-09-02T05:49:07.059Z,4.56
2022-09-02T05:51:42.139Z,4.18
2022-09-02T05:54:17.673Z,3.61
2022-09-02T05:56:52.573Z,4.18
2022-09-02T05:59:22.225Z,3.99
2022-09-02T06:01:50.016Z,4.18
2022-09-02T06:04:17.737Z,3.99
2022-09-02T06:06:44.873Z,4.37
2022-09-02T06:09:15.930Z,4.56
2022-09-02T06:11:49.509Z,3.99
2022-09-02T06:14:25.165Z,4.56
2022-09-02T06:16:55.637Z,3.99
2022-09-02T06:19:25.314Z,3.61
2022-09-02T06:21:54.408Z,4.18
2022-09-02T06:24:21.779Z,3.99
2022-09-02T06:26:49.201Z,3.99
2022-09-02T06:29:16.274Z,3.61
2022-09-02T06:31:46.590Z,3.80
2022-09-02T06:34:16.426Z,3.80
2022-09-02T06:36:47.471Z,4.18
2022-09-02T06:39:19.954Z,4.18
2022-09-02T06:41:49.052Z,4.18
2022-09-02T06:44:18.987Z,3.99
2022-09-02T06:46:54.243Z,3.61
2022-09-02T06:49:23.470Z,3.61
2022-09-02T06:51:54.710Z,3.80
2022-09-02T06:54:24.035Z,4.18
2022-09-02T06:56:52.361Z,4.18
2022-09-02T06:59:21.367Z,3.80
2022-09-02T07:01:49.639Z,4.37
2022-09-02T07:04:36.907Z,3.80
2022-09-02T07:07:07.281Z,3.99
2022-09-02T07:09:34.963Z,3.80
2022-09-02T07:12:05.473Z,3.80
2022-09-02T07:14:41.421Z,4.18
2022-09-02T07:17:10.495Z,3.80
2022-09-02T07:19:38.297Z,3.80
2022-09-02T07:22:06.921Z,3.80
2022-09-02T07:24:33.743Z,3.80
2022-09-02T07:27:00.542Z,3.61
2022-09-02T07:29:27.328Z,3.99
2022-09-02T07:31:54.108Z,3.99
2022-09-02T07:34:22.463Z,3.61
2022-09-02T07:36:49.337Z,3.04
2022-09-02T07:39:18.579Z,3.42
2022-09-02T07:41:50.280Z,3.99
2022-09-02T07:44:21.086Z,3.80
2022-09-02T07:46:48.337Z,3.80
2022-09-02T07:49:16.424Z,3.99
2022-09-02T07:51:52.035Z,3.99
2022-09-02T07:54:23.267Z,3.80
2022-09-02T07:56:50.554Z,3.61
2022-09-02T07:59:19.246Z,3.80
2022-09-02T08:01:48.433Z,3.23
2022-09-02T08:04:18.694Z,3.23
2022-09-02T08:06:46.742Z,3.04
2022-09-02T08:09:13.634Z,3.04
2022-09-02T08:11:45.156Z,2.66
2022-09-02T08:14:18.060Z,2.85
2022-09-02T08:16:46.725Z,3.04
2022-09-02T08:19:15.295Z,2.85
2022-09-02T08:21:42.031Z,3.61
2022-09-02T08:24:09.369Z,3.42
2022-09-02T08:26:37.210Z,2.85
2022-09-02T08:29:09.523Z,2.85
2022-09-02T08:31:39.377Z,2.85
2022-09-02T08:34:06.518Z,2.66
2022-09-02T08:36:33.268Z,2.85
2022-09-02T08:39:04.363Z,2.47
2022-09-02T08:41:41.784Z,2.66
2022-09-02T08:44:21.470Z,2.47
2022-09-02T08:46:54.097Z,2.66
2022-09-02T08:49:51.804Z,2.85
2022-09-02T08:52:43.209Z,2.09
2022-09-02T08:55:25.621Z,2.47
2022-09-02T08:57:52.986Z,2.28
2022-09-02T09:00:19.918Z,1.71
2022-09-02T09:03:05.684Z,2.66
2022-09-02T09:06:17.340Z,2.66
2022-09-02T09:09:09.412Z,2.47
2022-09-02T09:12:04.651Z,2.09
2022-09-02T09:15:14.941Z,2.47
2022-09-02T09:17:58.140Z,2.85
2022-09-02T09:20:37.577Z,2.09
2022-09-02T09:23:34.956Z,2.28
2022-09-02T09:26:23.021Z,2.09
2022-09-02T09:28:50.604Z,2.28
2022-09-02T09:31:22.162Z,2.09
2022-09-02T09:34:12.318Z,2.66
2022-09-02T09:36:45.476Z,1.90
2022-09-02T09:39:24.794Z,2.47
2022-09-02T09:41:58.530Z,2.09
2022-09-02T09:44:48.224Z,2.28
2022-09-02T09:47:23.205Z,2.28
2022-09-02T09:50:11.808Z,2.47
2022-09-02T09:52:39.311Z,2.09
2022-09-02T09:55:24.313Z,2.28
2022-09-02T09:57:54.027Z,1.90
2022-09-02T10:00:33.273Z,1.52
2022-09-02T10:03:05.702Z,2.28
2022-09-02T10:05:40.553Z,2.28
2022-09-02T10:08:16.093Z,2.28
2022-09-02T10:11:06.552Z,2.28
2022-09-02T10:13:38.124Z,2.66
2022-09-02T10:16:30.526Z,2.28
2022-09-02T10:19:30.270Z,2.47
2022-09-02T10:22:39.483Z,2.09
2022-09-02T10:25:49.616Z,2.28
2022-09-02T10:29:13.241Z,1.90
2022-09-02T10:32:15.182Z,2.09
2022-09-02T10:35:08.559Z,1.90
2022-09-02T10:38:29.464Z,1.90
2022-09-02T10:41:16.326Z,1.90
2022-09-02T10:44:03.874Z,2.09
2022-09-02T10:46:57.056Z,2.09
2022-09-02T10:50:09.751Z,2.09
2022-09-02T10:53:11.337Z,1.90
2022-09-02T10:55:58.497Z,2.28
2022-09-02T10:58:57.313Z,1.90
2022-09-02T11:01:34.609Z,1.71
2022-09-02T11:04:31.980Z,1.90
2022-09-02T11:07:04.047Z,1.90
2022-09-02T11:09:52.932Z,2.47
2022-09-02T11:12:31.483Z,2.09
2022-09-02T11:15:22.043Z,2.47
2022-09-02T11:18:19.213Z,2.28
2022-09-02T11:21:21.992Z,2.09
2022-09-02T11:24:15.996Z,1.90
2022-09-02T11:27:25.891Z,1.71
2022-09-02T11:30:22.419Z,1.71
2022-09-02T11:33:07.687Z,2.09
2022-09-02T11:35:39.027Z,1.52
2022-09-02T11:38:33.165Z,1.90
2022-09-02T11:41:36.848Z,1.90
2022-09-02T11:45:10.475Z,1.90
2022-09-02T11:47:51.684Z,2.09
2022-09-02T11:51:07.088Z,2.09
2022-09-02T11:53:45.242Z,2.09
2022-09-02T11:56:22.010Z,2.09
2022-09-02T11:58:53.375Z,2.28
2022-09-02T12:01:52.477Z,2.47
2022-09-02T12:04:58.837Z,2.28
2022-09-02T12:07:24.332Z,2.47
2022-09-02T12:09:56.772Z,2.09
2022-09-02T12:12:38.980Z,4.37
2022-09-02T12:15:06.326Z,2.09
2022-09-02T12:18:13.165Z,2.09
2022-09-02T12:20:41.432Z,1.90
2022-09-02T12:23:11.300Z,2.09
2022-09-02T12:26:14.079Z,2.09
2022-09-02T12:28:48.118Z,2.47
2022-09-02T12:31:47.348Z,2.28
2022-09-02T12:34:20.930Z,1.90
2022-09-02T12:36:55.300Z,2.09
2022-09-02T12:39:25.444Z,2.09
2022-09-02T12:41:57.997Z,2.28
2022-09-02T12:44:49.322Z,2.47
2022-09-02T12:48:07.122Z,2.28
2022-09-02T12:50:43.917Z,2.47
2022-09-02T12:53:43.182Z,2.28
2022-09-02T12:56:15.830Z,2.28
2022-09-02T12:58:51.403Z,2.66
2022-09-02T13:01:38.038Z,2.28
2022-09-02T13:04:59.285Z,2.28
2022-09-02T13:07:53.867Z,2.09
2022-09-02T13:10:28.560Z,2.66
2022-09-02T13:13:32.379Z,2.66
2022-09-02T13:16:30.925Z,2.47
2022-09-02T13:19:37.882Z,2.85
2022-09-02T13:22:45.454Z,2.47
2022-09-02T13:25:36.444Z,2.28
2022-09-02T13:28:29.604Z,2.47
2022-09-02T13:31:25.557Z,2.47
2022-09-02T13:34:05.758Z,2.66
2022-09-02T13:36:41.255Z,2.28
2022-09-02T13:39:20.367Z,2.28
2022-09-02T13:41:49.365Z,2.47
2022-09-02T13:44:29.019Z,2.66
2022-09-02T13:47:20.750Z,2.28
2022-09-02T13:49:52.005Z,2.28
2022-09-02T13:52:51.172Z,2.66
2022-09-02T13:55:15.307Z,2.47
2022-09-02T13:58:03.465Z,2.47
2022-09-02T14:00:41.030Z,2.09
2022-09-02T14:03:19.618Z,2.09
2022-09-02T14:05:53.214Z,2.47
2022-09-02T14:08:24.679Z,2.66
2022-09-02T14:10:53.989Z,2.09
2022-09-02T14:13:22.952Z,2.47
2022-09-02T14:15:49.874Z,2.28
2022-09-02T14:18:25.550Z,2.47
2022-09-02T14:21:25.927Z,2.28
2022-09-02T14:23:53.074Z,2.47
2022-09-02T14:26:38.263Z,2.28
2022-09-02T14:29:07.949Z,2.09
2022-09-02T14:31:35.378Z,2.85
2022-09-02T14:34:02.381Z,2.28
2022-09-02T14:36:36.986Z,2.28
2022-09-02T14:39:17.043Z,2.66
2022-09-02T14:41:52.064Z,2.47
2022-09-02T14:44:36.451Z,2.28
2022-09-02T14:47:16.766Z,2.09
2022-09-02T14:49:52.638Z,2.47
2022-09-02T14:52:28.613Z,2.09
2022-09-02T14:54:58.020Z,1.90
2022-09-02T14:57:38.968Z,2.09
2022-09-02T15:00:14.965Z,2.28
2022-09-02T15:02:47.703Z,2.09
2022-09-02T15:05:14.911Z,1.52
2022-09-02T15:07:42.638Z,2.47
2022-09-02T15:10:09.947Z,1.71
2022-09-02T15:12:57.946Z,1.71
2022-09-02T15:15:27.210Z,1.71
2022-09-02T15:17:54.489Z,1.90
2022-09-02T15:20:24.793Z,1.33
2022-09-02T15:22:54.049Z,1.90
2022-09-02T15:25:21.196Z,1.90
2022-09-02T15:27:48.002Z,1.71
2022-09-02T15:30:15.353Z,1.90
2022-09-02T15:32:42.731Z,1.71
2022-09-02T15:35:09.883Z,1.90
2022-09-02T15:37:38.104Z,2.09
2022-09-02T15:40:08.177Z,1.71
2022-09-02T15:42:39.227Z,1.71
2022-09-02T15:45:11.427Z,1.90
2022-09-02T15:47:39.104Z,1.71
2022-09-02T15:50:07.061Z,2.09
2022-09-02T15:52:35.531Z,1.71
2022-09-02T15:55:02.270Z,1.71
2022-09-02T15:57:29.785Z,1.71
2022-09-02T15:59:57.335Z,1.71
2022-09-02T16:02:24.125Z,1.71
2022-09-02T16:04:50.842Z,1.71
2022-09-02T16:07:17.557Z,1.90
2022-09-02T16:09:44.370Z,2.47
2022-09-02T16:12:15.439Z,2.09
2022-09-02T16:14:42.198Z,2.09
2022-09-02T16:17:10.370Z,2.28
2022-09-02T16:19:37.255Z,2.66
2022-09-02T16:22:04.637Z,4.37
2022-09-02T16:24:31.698Z,2.47
2022-09-02T16:26:58.486Z,2.47
2022-09-02T16:29:28.148Z,3.23
2022-09-02T16:32:23.664Z,1.90
2022-09-02T16:34:42.441Z,1.90
2022-09-02T16:37:09.154Z,1.52
2022-09-02T16:39:36.251Z,1.52
2022-09-02T16:42:05.600Z,2.09
2022-09-02T16:44:34.231Z,1.71
2022-09-02T16:47:01.128Z,1.52
2022-09-02T16:49:27.886Z,1.52
2022-09-02T16:51:58.079Z,1.52
2022-09-02T16:54:31.168Z,1.90
2022-09-02T16:57:01.378Z,1.52
2022-09-02T16:59:28.313Z,1.52
2022-09-02T17:01:55.233Z,1.52
2022-09-02T17:04:22.235Z,1.90
2022-09-02T17:06:49.152Z,1.71
2022-09-02T17:09:19.231Z,1.90
2022-09-02T17:11:45.961Z,1.71
2022-09-02T17:14:17.705Z,1.33
2022-09-02T17:16:48.293Z,1.71
2022-09-02T17:19:22.065Z,1.52
2022-09-02T17:21:52.188Z,1.52
2022-09-02T17:24:23.373Z,1.90
2022-09-02T17:26:54.563Z,1.90
2022-09-02T17:32:11.086Z,1.90
2022-09-02T17:34:37.957Z,2.09
2022-09-02T17:37:05.662Z,1.90
2022-09-02T17:39:34.111Z,1.71
2022-09-02T17:42:03.106Z,1.90
2022-09-02T17:44:37.592Z,2.28
2022-09-02T17:47:20.328Z,2.28
2022-09-02T17:49:48.693Z,1.90
2022-09-02T17:52:19.897Z,1.71
2022-09-02T17:54:51.612Z,1.71
2022-09-02T17:57:40.297Z,1.90
2022-09-02T18:00:21.289Z,2.28
2022-09-02T18:03:24.419Z,1.71
2022-09-02T18:06:04.899Z,1.71
2022-09-02T18:08:56.417Z,1.52
2022-09-02T18:11:24.515Z,2.66
2022-09-02T18:14:35.952Z,1.90
2022-09-02T18:17:41.227Z,2.47
2022-09-02T18:20:14.058Z,1.90
2022-09-02T18:23:10.102Z,2.09
2022-09-02T18:26:02.848Z,2.09
2022-09-02T18:29:12.691Z,2.28
2022-09-02T18:31:54.598Z,1.90
2022-09-02T18:34:40.297Z,1.90
2022-09-02T18:37:35.424Z,2.28
2022-09-02T18:40:44.244Z,2.09
2022-09-02T18:43:34.949Z,2.47
2022-09-02T18:46:05.160Z,2.66
2022-09-02T18:48:36.093Z,2.85
2022-09-02T18:51:33.662Z,2.66
2022-09-02T18:54:26.745Z,2.66
2022-09-02T18:56:59.122Z,2.28
2022-09-02T19:00:00.568Z,2.85
2022-09-02T19:02:46.484Z,2.66
2022-09-02T19:05:20.298Z,2.28
2022-09-02T19:08:23.381Z,2.66
2022-09-02T19:11:12.876Z,3.04
2022-09-02T19:13:55.764Z,3.04
2022-09-02T19:16:28.030Z,2.85
2022-09-02T19:18:55.406Z,2.66
2022-09-02T19:22:04.031Z,2.66
2022-09-02T19:24:39.257Z,3.04
2022-09-02T19:27:16.774Z,3.23
2022-09-02T19:29:51.510Z,3.23
2022-09-02T19:32:29.973Z,3.42
2022-09-02T19:35:00.324Z,2.47
2022-09-02T19:37:27.374Z,2.66
2022-09-02T19:39:54.572Z,2.66
2022-09-02T19:42:24.319Z,3.04
2022-09-02T19:44:51.275Z,2.28
2022-09-02T19:48:05.147Z,2.85
2022-09-02T19:50:07.318Z,2.47
2022-09-02T19:52:41.048Z,2.28
2022-09-02T19:55:09.669Z,2.66
2022-09-02T19:57:37.219Z,2.66
2022-09-02T20:00:07.624Z,2.47
2022-09-02T20:02:34.971Z,2.28
2022-09-02T20:05:02.215Z,2.66
2022-09-02T20:07:28.960Z,2.85
2022-09-02T20:09:55.748Z,2.28
2022-09-02T20:12:23.589Z,3.04
2022-09-02T20:14:50.813Z,2.66
2022-09-02T20:17:22.206Z,3.04
2022-09-02T20:19:50.138Z,3.23
2022-09-02T20:22:18.619Z,2.85
2022-09-02T20:24:45.354Z,2.47
2022-09-02T20:27:54.896Z,3.42
2022-09-02T20:30:23.568Z,3.61
2022-09-02T20:33:17.391Z,2.85
2022-09-02T20:35:59.454Z,2.85
2022-09-02T20:38:33.723Z,3.61
2022-09-02T20:41:35.246Z,3.04
2022-09-02T20:44:35.913Z,2.85
2022-09-02T20:47:24.924Z,3.04
2022-09-02T20:50:47.805Z,2.66
2022-09-02T20:53:41.251Z,2.09
2022-09-02T20:57:05.274Z,2.28
2022-09-02T21:00:07.377Z,2.09
2022-09-02T21:02:55.751Z,2.47
2022-09-02T21:05:31.287Z,2.28
2022-09-02T21:08:38.401Z,2.28
2022-09-02T21:11:13.042Z,2.09
2022-09-02T21:13:56.995Z,2.47
2022-09-02T21:16:35.993Z,2.28
2022-09-02T21:19:18.725Z,2.28
2022-09-02T21:22:21.541Z,2.47
2022-09-02T21:24:58.982Z,2.28
2022-09-02T21:27:45.252Z,2.47
2022-09-02T21:30:31.056Z,2.66
2022-09-02T21:33:01.931Z,2.66
2022-09-02T21:35:49.025Z,1.90
2022-09-02T21:38:43.331Z,2.47
2022-09-02T21:42:12.791Z,2.47
2022-09-02T21:45:17.799Z,2.66
2022-09-02T21:48:14.847Z,2.66
2022-09-02T21:50:58.802Z,2.85
2022-09-02T21:54:00.779Z,2.28
2022-09-02T21:56:57.821Z,2.47
2022-09-02T21:59:41.103Z,2.09
2022-09-02T22:02:20.195Z,2.28
2022-09-02T22:05:09.234Z,2.09
2022-09-02T22:07:55.439Z,2.09
2022-09-02T22:10:46.892Z,2.28
2022-09-02T22:13:14.357Z,2.85
2022-09-02T22:16:12.997Z,2.47
2022-09-02T22:19:01.299Z,2.66
2022-09-02T22:21:49.413Z,2.47
2022-09-02T22:24:19.872Z,2.66
2022-09-02T22:27:04.868Z,2.47
2022-09-02T22:30:08.884Z,3.04
2022-09-02T22:32:41.014Z,2.09
2022-09-02T22:35:23.017Z,2.09
2022-09-02T22:38:03.173Z,2.28
2022-09-02T22:40:41.525Z,2.28
2022-09-02T22:43:17.444Z,2.85
2022-09-02T22:46:17.190Z,2.66
2022-09-02T22:49:32.546Z,2.85
2022-09-02T22:52:28.111Z,2.85
2022-09-02T22:54:56.877Z,2.09
2022-09-02T22:58:24.300Z,2.47
2022-09-02T23:01:19.188Z,2.66
2022-09-02T23:04:12.341Z,2.47
2022-09-02T23:06:39.247Z,2.66
2022-09-02T23:09:11.481Z,2.47
2022-09-02T23:12:25.158Z,2.28
2022-09-02T23:15:33.053Z,2.47
2022-09-02T23:18:17.187Z,2.09
2022-09-02T23:21:11.359Z,3.04
2022-09-02T23:23:51.336Z,2.85
2022-09-02T23:26:54.756Z,2.47
2022-09-02T23:29:26.976Z,2.28
2022-09-02T23:32:26.198Z,2.47
2022-09-02T23:35:07.286Z,2.66
2022-09-02T23:38:13.278Z,2.28
2022-09-02T23:40:44.616Z,2.28
2022-09-02T23:43:18.439Z,3.42
2022-09-02T23:45:47.515Z,2.47
2022-09-02T23:48:20.974Z,3.04
2022-09-02T23:51:13.256Z,2.85
2022-09-02T23:54:26.856Z,2.85
2022-09-02T23:57:47.219Z,2.28
